Time;durP1;ratioP1;P1;durP2;ratioP2;P2;SDS_P1;SDS_P2;PMS_P1;PMS_P2;Temp;Humidity;BMP_temperature;BMP_pressure;BME280_temperature;BME280_humidity;BME280_pressure;Samples;Min_cycle;Max_cycle;Signal;HPM_P1;HPM_P2
2022/01/01 00:00:07;;;;;;;;;;;;;;;-1.76;99.54;97909.59;5011899;28;19968;-78
2022/01/01 00:02:37;;;;;;;;;;;;;;;-1.76;99.77;97904.53;5013536;28;19919;-78
2022/01/01 00:05:04;;;;;;;;;;;;;;;-1.74;99.48;97907.97;5013737;28;20020;-78
2022/01/01 00:07:29;;;;;;;;;;;;;;;-1.73;99.29;97898.66;5012223;28;20415;-78
2022/01/01 00:09:55;;;;;;;;;;;;;;;-1.71;99.22;97912.22;5013286;28;19956;-78
2022/01/01 00:12:20;;;;;;;;;;;;;;;-1.68;99.59;97902.97;5012311;28;20434;-78
2022/01/01 00:14:46;;;;;;;;;;;;;;;-1.70;99.96;97902.06;5011728;28;19921;-78
2022/01/01 00:17:11;;;;;;;;;;;;;;;-1.67;99.65;97902.13;5011969;28;19963;-78
2022/01/01 00:19:38;;;;;;;;;;;;;;;-1.63;99.72;97885.25;5013248;28;19983;-78
2022/01/01 00:22:04;;;;;;;;;;;;;;;-1.64;99.72;97889.47;5013117;28;19959;-79
2022/01/01 00:24:29;;;;;;;;;;;;;;;-1.64;99.82;97889.47;4995501;28;20327;-78
2022/01/01 00:26:55;;;;;;;;;;;;;;;-1.63;99.73;97878.47;5013074;28;20012;-78
2022/01/01 00:29:20;;;;;;;;;;;;;;;-1.63;100.00;97875.91;5015334;28;19984;-79
2022/01/01 00:31:46;;;;;;;;;;;;;;;-1.59;100.00;97877.69;5002079;28;19913;-79
2022/01/01 00:34:12;;;;;;;;;;;;;;;-1.58;99.98;97866.66;5019327;28;19921;-78
2022/01/01 00:36:38;;;;;;;;;;;;;;;-1.54;100.00;97862.50;5019490;28;20012;-80
2022/01/01 00:39:04;;;;;;;;;;;;;;;-1.59;100.00;97857.34;5018493;28;19928;-78
2022/01/01 00:41:29;;;;;;;;;;;;;;;-1.59;99.68;97848.88;5017899;28;19921;-78
2022/01/01 00:43:55;;;;;;;;;;;;;;;-1.59;99.81;97844.63;5018054;28;19917;-78
2022/01/01 00:46:20;;;;;;;;;;;;;;;-1.55;100.00;97833.69;5019217;28;19917;-78
2022/01/01 00:48:46;;;;;;;;;;;;;;;-1.56;100.00;97841.25;5019359;28;19917;-78
2022/01/01 00:51:13;;;;;;;;;;;;;;;-1.54;99.83;97832.84;5019135;28;19925;-79
2022/01/01 00:53:38;;;;;;;;;;;;;;;-1.54;100.00;97830.28;5019405;28;19921;-78
2022/01/01 00:56:04;;;;;;;;;;;;;;;-1.52;100.00;97832.84;5019237;28;20328;-78
2022/01/01 00:58:29;;;;;;;;;;;;;;;-1.56;100.00;97831.97;5019378;28;19917;-80
2022/01/01 01:00:55;;;;;;;;;;;;;;;-1.51;100.00;97843.88;5019210;28;20347;-79
2022/01/01 01:03:20;;;;;;;;;;;;;;;-1.50;100.00;97838.81;5019034;28;20020;-78
2022/01/01 01:05:46;;;;;;;;;;;;;;;-1.50;99.85;97840.53;5017875;28;20364;-79
2022/01/01 01:08:12;;;;;;;;;;;;;;;-1.51;99.99;97833.69;5001551;28;19972;-79
2022/01/01 01:10:37;;;;;;;;;;;;;;;-1.50;99.96;97821.03;5017843;28;20032;-79
2022/01/01 01:13:03;;;;;;;;;;;;;;;-1.47;100.00;97827.81;5001033;28;20420;-79
2022/01/01 01:15:30;;;;;;;;;;;;;;;-1.45;100.00;97818.53;5017801;28;19913;-79
2022/01/01 01:17:57;;;;;;;;;;;;;;;-1.46;100.00;97817.69;5018193;28;19917;-79
2022/01/01 01:20:22;;;;;;;;;;;;;;;-1.46;100.00;97809.22;5019519;28;20424;-80
2022/01/01 01:22:48;;;;;;;;;;;;;;;-1.46;99.84;97809.22;5018888;28;19965;-79
2022/01/01 01:25:13;;;;;;;;;;;;;;;-1.43;99.94;97811.78;5018849;28;19918;-79
2022/01/01 01:27:39;;;;;;;;;;;;;;;-1.45;99.49;97813.47;5017840;28;19917;-79
2022/01/01 01:30:05;;;;;;;;;;;;;;;-1.43;100.00;97810.09;5001550;28;19967;-80
2022/01/01 01:32:30;;;;;;;;;;;;;;;-1.44;99.99;97818.56;5017546;28;20388;-79
2022/01/01 01:34:56;;;;;;;;;;;;;;;-1.44;99.79;97816.00;5018586;28;19925;-80
2022/01/01 01:37:23;;;;;;;;;;;;;;;-1.44;99.77;97807.53;5018830;28;19918;-79
2022/01/01 01:39:48;;;;;;;;;;;;;;;-1.43;99.91;97807.53;5017947;28;20381;-79
2022/01/01 01:42:14;;;;;;;;;;;;;;;-1.45;99.67;97814.31;5014936;28;19921;-79
2022/01/01 01:44:43;;;;;;;;;;;;;;;-1.43;99.82;97811.78;5015757;28;19961;-78
2022/01/01 01:47:16;;;;;;;;;;;;;;;-1.41;100.00;97803.34;5015582;28;20377;-78
2022/01/01 01:49:43;;;;;;;;;;;;;;;-1.40;99.85;97799.13;5014524;28;20392;-78
2022/01/01 01:52:08;;;;;;;;;;;;;;;-1.41;100.00;97794.88;5014428;28;19913;-78
2022/01/01 01:54:34;;;;;;;;;;;;;;;-1.41;100.00;97792.31;5015219;28;20367;-78
2022/01/01 01:56:59;;;;;;;;;;;;;;;-1.37;100.00;97796.63;5015348;28;19920;-78
2022/01/01 01:59:25;;;;;;;;;;;;;;;-1.40;99.83;97796.56;4997915;28;20023;-79
2022/01/01 02:01:51;;;;;;;;;;;;;;;-1.43;100.00;97784.66;5013967;28;19921;-79
2022/01/01 02:04:16;;;;;;;;;;;;;;;-1.42;99.97;97794.03;5030348;28;20291;-79
2022/01/01 02:06:42;;;;;;;;;;;;;;;-1.41;100.00;97779.59;4997823;28;19913;-79
2022/01/01 02:09:08;;;;;;;;;;;;;;;-1.39;100.00;97788.09;5013910;28;19918;-79
2022/01/01 02:11:34;;;;;;;;;;;;;;;-1.39;100.00;97783.00;4981371;28;20376;-78
2022/01/01 02:14:03;;;;;;;;;;;;;;;-1.39;99.94;97783.88;5013763;28;19928;-78
2022/01/01 02:16:39;;;;;;;;;;;;;;;-1.37;100.00;97786.44;5013581;28;19919;-78
2022/01/01 02:19:05;;;;;;;;;;;;;;;-1.37;100.00;97789.84;5014062;28;19917;-78
2022/01/01 02:21:30;;;;;;;;;;;;;;;-1.37;100.00;97797.47;5014066;28;20261;-78
2022/01/01 02:23:59;;;;;;;;;;;;;;;-1.35;99.99;97785.63;4997084;28;19921;-78
2022/01/01 02:26:32;;;;;;;;;;;;;;;-1.31;100.00;97789.06;5015072;28;19913;-78
2022/01/01 02:28:58;;;;;;;;;;;;;;;-1.31;99.93;97776.34;5013729;28;19917;-78
2022/01/01 02:31:24;;;;;;;;;;;;;;;-1.30;100.00;97778.03;5014567;28;19924;-78
2022/01/01 02:33:49;;;;;;;;;;;;;;;-1.31;100.00;97786.50;5013377;28;19971;-78
2022/01/01 02:36:15;;;;;;;;;;;;;;;-1.30;100.00;97775.50;5014665;28;19940;-78
2022/01/01 02:38:40;;;;;;;;;;;;;;;-1.25;99.98;97770.47;5013497;28;19917;-78
2022/01/01 02:41:05;;;;;;;;;;;;;;;-1.28;99.87;97776.38;5014356;28;20028;-78
2022/01/01 02:43:32;;;;;;;;;;;;;;;-1.26;100.00;97774.69;4997266;28;19952;-79
2022/01/01 02:45:57;;;;;;;;;;;;;;;-1.27;100.00;97769.59;5014299;28;20045;-79
2022/01/01 02:48:23;;;;;;;;;;;;;;;-1.27;100.00;97769.59;5014650;28;19917;-80
2022/01/01 02:50:51;;;;;;;;;;;;;;;-1.26;100.00;97768.75;5013058;28;19913;-79
2022/01/01 02:53:17;;;;;;;;;;;;;;;-1.26;99.78;97773.84;5012709;28;19917;-79
2022/01/01 02:55:43;;;;;;;;;;;;;;;-1.28;100.00;97761.13;4996625;28;19920;-80
2022/01/01 02:58:11;;;;;;;;;;;;;;;-1.26;100.00;97763.69;5014174;28;19917;-79
2022/01/01 03:00:37;;;;;;;;;;;;;;;-1.28;100.00;97756.03;5013976;28;20000;-79
2022/01/01 03:03:03;;;;;;;;;;;;;;;-1.24;100.00;97759.44;5014192;28;19924;-79
2022/01/01 03:05:30;;;;;;;;;;;;;;;-1.23;99.92;97759.50;5014029;28;20384;-79
2022/01/01 03:07:55;;;;;;;;;;;;;;;-1.24;100.00;97749.28;4996450;28;19917;-79
2022/01/01 03:10:21;;;;;;;;;;;;;;;-1.25;99.94;97748.44;5014029;28;19963;-79
2022/01/01 03:12:46;;;;;;;;;;;;;;;-1.23;99.27;97741.69;5013926;28;19917;-79
2022/01/01 03:15:12;;;;;;;;;;;;;;;-1.24;99.90;97734.00;5014142;28;19969;-79
2022/01/01 03:17:37;;;;;;;;;;;;;;;-1.23;99.65;97741.69;5013780;28;20374;-79
2022/01/01 03:20:03;;;;;;;;;;;;;;;-1.23;99.73;97739.13;5012581;28;19919;-78
2022/01/01 03:22:29;;;;;;;;;;;;;;;-1.21;99.83;97742.53;5012409;28;19983;-78
2022/01/01 03:24:54;;;;;;;;;;;;;;;-1.25;99.64;97730.63;5013691;28;19984;-79
2022/01/01 03:27:19;;;;;;;;;;;;;;;-1.21;99.82;97737.44;5012570;28;20759;-78
2022/01/01 03:29:45;;;;;;;;;;;;;;;-1.21;100.00;97737.44;4996176;28;20004;-79
2022/01/01 03:32:10;;;;;;;;;;;;;;;-1.20;100.00;97740.84;5013462;28;20388;-79
2022/01/01 03:34:36;;;;;;;;;;;;;;;-1.20;100.00;97734.06;4996076;28;19979;-78
2022/01/01 03:37:01;;;;;;;;;;;;;;;-1.18;99.92;97732.41;5012142;28;19917;-79
2022/01/01 03:39:27;;;;;;;;;;;;;;;-1.18;99.92;97727.31;5013145;28;19913;-79
2022/01/01 03:41:52;;;;;;;;;;;;;;;-1.18;99.60;97732.41;5013621;28;20458;-79
2022/01/01 03:44:18;;;;;;;;;;;;;;;-1.16;99.67;97730.72;5012065;28;20316;-78
2022/01/01 03:46:44;;;;;;;;;;;;;;;-1.15;99.89;97742.59;4995698;28;20383;-78
2022/01/01 03:49:09;;;;;;;;;;;;;;;-1.14;99.68;97734.16;5012172;28;19913;-79
2022/01/01 03:51:34;;;;;;;;;;;;;;;-1.12;99.73;97737.56;4995727;28;19917;-78
2022/01/01 03:54:00;;;;;;;;;;;;;;;-1.12;99.85;97732.47;4995487;28;20028;-79
2022/01/01 03:56:25;;;;;;;;;;;;;;;-1.12;99.73;97739.25;5012070;28;19917;-78
2022/01/01 03:58:51;;;;;;;;;;;;;;;-1.16;99.62;97735.81;4995550;28;20284;-79
2022/01/01 04:01:16;;;;;;;;;;;;;;;-1.16;99.59;97733.25;4995746;28;20450;-79
2022/01/01 04:03:43;;;;;;;;;;;;;;;-1.15;99.34;97734.13;4995311;28;19913;-78
2022/01/01 04:06:09;;;;;;;;;;;;;;;-1.14;99.56;97733.31;5011549;28;19917;-79
2022/01/01 04:08:34;;;;;;;;;;;;;;;-1.18;99.39;97732.41;4995226;28;19935;-79
2022/01/01 04:11:00;;;;;;;;;;;;;;;-1.13;99.42;97729.91;5012833;28;19917;-79
2022/01/01 04:13:25;;;;;;;;;;;;;;;-1.12;99.32;97726.53;5011677;28;19913;-78
2022/01/01 04:15:51;;;;;;;;;;;;;;;-1.13;99.26;97725.69;5011501;28;19940;-78
2022/01/01 04:18:26;;;;;;;;;;;;;;;-1.11;99.55;97716.34;5011641;28;19917;-78
2022/01/01 04:20:52;;;;;;;;;;;;;;;-1.06;99.59;97726.59;4995682;28;19917;-79
2022/01/01 04:23:17;;;;;;;;;;;;;;;-1.08;99.43;97723.19;4995410;28;19924;-79
2022/01/01 04:25:47;;;;;;;;;;;;;;;-1.07;99.32;97720.66;5012740;28;19921;-79
2022/01/01 04:28:13;;;;;;;;;;;;;;;-1.09;99.12;97729.97;5013163;28;20435;-79
2022/01/01 04:30:38;;;;;;;;;;;;;;;-1.13;99.27;97735.84;5012684;28;19996;-78
2022/01/01 04:33:04;;;;;;;;;;;;;;;-1.13;98.99;97730.75;5012600;28;19960;-79
2022/01/01 04:35:29;;;;;;;;;;;;;;;-1.12;99.31;97732.47;5011428;28;19925;-78
2022/01/01 04:37:55;;;;;;;;;;;;;;;-1.15;99.13;97729.88;5011640;28;19924;-78
2022/01/01 04:40:20;;;;;;;;;;;;;;;-1.15;99.25;97729.03;4994806;28;19944;-79
2022/01/01 04:42:46;;;;;;;;;;;;;;;-1.15;99.32;97724.78;5012888;28;19921;-79
2022/01/01 04:45:11;;;;;;;;;;;;;;;-1.13;99.38;97725.69;4995167;28;20403;-78
2022/01/01 04:47:37;;;;;;;;;;;;;;;-1.13;98.99;97729.91;5010875;28;19924;-79
2022/01/01 04:50:04;;;;;;;;;;;;;;;-1.10;99.07;97728.25;5010565;28;19919;-80
2022/01/01 04:52:30;;;;;;;;;;;;;;;-1.05;99.02;97731.72;5012648;28;19917;-80
2022/01/01 04:54:55;;;;;;;;;;;;;;;-1.05;98.89;97731.72;5011250;28;19918;-79
2022/01/01 04:57:25;;;;;;;;;;;;;;;-1.07;98.62;97728.28;5011324;28;19940;-79
2022/01/01 04:59:51;;;;;;;;;;;;;;;-1.09;98.73;97731.66;5011251;28;20024;-79
2022/01/01 05:02:16;;;;;;;;;;;;;;;-1.02;98.52;97741.06;5012350;28;19952;-80
2022/01/01 05:04:42;;;;;;;;;;;;;;;-1.05;98.69;97741.03;4994889;28;19967;-80
2022/01/01 05:07:07;;;;;;;;;;;;;;;-1.00;98.49;97741.09;4994906;28;19935;-79
2022/01/01 05:09:33;;;;;;;;;;;;;;;-1.00;98.53;97741.94;5011008;28;19932;-79
2022/01/01 05:11:58;;;;;;;;;;;;;;;-0.96;98.84;97740.25;5012413;28;19920;-79
2022/01/01 05:14:25;;;;;;;;;;;;;;;-1.03;98.42;97745.28;5010947;28;19928;-79
2022/01/01 05:16:51;;;;;;;;;;;;;;;-1.03;98.39;97747.84;5014860;28;19948;-80
2022/01/01 05:19:18;;;;;;;;;;;;;;;-1.00;98.66;97746.19;5014877;28;19964;-80
2022/01/01 05:21:43;;;;;;;;;;;;;;;-0.96;98.55;97753.88;5016169;28;20368;-79
2022/01/01 05:24:08;;;;;;;;;;;;;;;-0.91;98.45;97756.47;5015727;28;19947;-79
2022/01/01 05:26:34;;;;;;;;;;;;;;;-0.91;98.37;97759.84;4998477;28;19966;-80
2022/01/01 05:28:59;;;;;;;;;;;;;;;-0.92;98.22;97752.19;5014365;28;19932;-79
2022/01/01 05:31:25;;;;;;;;;;;;;;;-0.88;98.31;97756.47;4998160;28;19913;-79
2022/01/01 05:33:50;;;;;;;;;;;;;;;-0.88;98.19;97759.00;5014288;28;19921;-80
2022/01/01 05:36:16;;;;;;;;;;;;;;;-0.92;97.95;97755.56;5014373;28;19951;-80
2022/01/01 05:38:42;;;;;;;;;;;;;;;-0.92;98.45;97757.28;5014398;28;19917;-79
2022/01/01 05:41:07;;;;;;;;;;;;;;;-0.98;98.17;97752.97;5014241;28;19943;-79
2022/01/01 05:43:33;;;;;;;;;;;;;;;-0.94;98.30;97756.41;5015596;28;19917;-79
2022/01/01 05:45:58;;;;;;;;;;;;;;;-0.90;98.29;97758.16;5015563;28;19949;-79
2022/01/01 05:48:23;;;;;;;;;;;;;;;-0.91;98.08;97757.31;5014702;28;19921;-79
2022/01/01 05:50:49;;;;;;;;;;;;;;;-0.89;98.21;97767.50;5014573;28;20335;-79
2022/01/01 05:53:15;;;;;;;;;;;;;;;-0.85;98.32;97771.78;5014179;28;19917;-79
2022/01/01 05:55:40;;;;;;;;;;;;;;;-0.86;97.97;97770.09;5014603;28;19920;-79
2022/01/01 05:58:06;;;;;;;;;;;;;;;-0.86;98.02;97775.19;5014101;28;19924;-79
2022/01/01 06:00:31;;;;;;;;;;;;;;;-0.81;97.80;97771.84;4997785;28;19956;-80
2022/01/01 06:03:00;;;;;;;;;;;;;;;-0.82;97.94;97777.78;5015156;28;19917;-79
2022/01/01 06:05:26;;;;;;;;;;;;;;;-0.83;98.01;97770.09;5015306;28;20003;-80
2022/01/01 06:07:53;;;;;;;;;;;;;;;-0.86;97.52;97770.94;5014926;28;19921;-80
2022/01/01 06:10:18;;;;;;;;;;;;;;;-0.71;97.70;97775.31;5014133;28;20407;-80
2022/01/01 06:12:44;;;;;;;;;;;;;;;-0.69;97.74;97768.53;5014955;28;20015;-79
2022/01/01 06:15:09;;;;;;;;;;;;;;;-0.77;97.50;97760.84;5013704;28;19924;-79
2022/01/01 06:17:35;;;;;;;;;;;;;;;-0.70;97.67;97761.75;5015016;28;19917;-80
2022/01/01 06:20:00;;;;;;;;;;;;;;;-0.69;97.80;97763.44;5013644;28;19917;-80
2022/01/01 06:22:26;;;;;;;;;;;;;;;-0.69;97.79;97762.59;4997542;28;20480;-80
2022/01/01 06:24:51;;;;;;;;;;;;;;;-0.74;97.42;97761.69;4997170;28;20023;-79
2022/01/01 06:27:16;;;;;;;;;;;;;;;-0.76;97.58;97774.44;5013974;28;20349;-79
2022/01/01 06:29:42;;;;;;;;;;;;;;;-0.69;97.57;97776.19;5014613;28;19944;-79
2022/01/01 06:32:07;;;;;;;;;;;;;;;-0.68;97.83;97782.16;5014725;28;19982;-80
2022/01/01 06:34:33;;;;;;;;;;;;;;;-0.71;97.94;97779.56;5014687;28;20020;-80
2022/01/01 06:36:58;;;;;;;;;;;;;;;-0.71;97.85;97784.66;5014503;28;19960;-80
2022/01/01 06:39:24;;;;;;;;;;;;;;;-0.64;97.94;97781.31;5014208;28;19914;-79
2022/01/01 06:41:49;;;;;;;;;;;;;;;-0.57;98.03;97778.84;5014504;28;19920;-79
2022/01/01 06:44:15;;;;;;;;;;;;;;;-0.58;97.96;97777.16;5014560;28;19917;-79
2022/01/01 06:46:40;;;;;;;;;;;;;;;-0.63;97.64;97781.34;5013430;28;20365;-79
2022/01/01 06:49:06;;;;;;;;;;;;;;;-0.63;97.72;97781.34;5014740;28;19917;-80
2022/01/01 06:51:32;;;;;;;;;;;;;;;-0.61;97.72;97789.84;4997075;28;20399;-80
2022/01/01 06:53:58;;;;;;;;;;;;;;;-0.59;98.07;97790.72;5014549;28;19917;-80
2022/01/01 06:56:23;;;;;;;;;;;;;;;-0.60;97.54;97789.00;5013039;28;19955;-80
2022/01/01 06:58:49;;;;;;;;;;;;;;;-0.53;98.16;97784.84;5014331;28;20011;-80
2022/01/01 07:01:14;;;;;;;;;;;;;;;-0.57;97.64;97788.19;5029416;28;19924;-79
2022/01/01 07:03:40;;;;;;;;;;;;;;;-0.56;97.18;97792.44;5014264;28;19920;-80
2022/01/01 07:06:05;;;;;;;;;;;;;;;-0.50;97.99;97792.53;5014335;28;20438;-79
2022/01/01 07:08:31;;;;;;;;;;;;;;;-0.44;97.58;97784.06;5014422;28;19913;-80
2022/01/01 07:10:56;;;;;;;;;;;;;;;-0.42;97.86;97787.47;5012768;28;19917;-80
2022/01/01 07:13:22;;;;;;;;;;;;;;;-0.51;97.70;97784.00;5014142;28;19967;-80
2022/01/01 07:15:47;;;;;;;;;;;;;;;-0.53;97.28;97779.75;4996392;28;20451;-80
2022/01/01 07:18:13;;;;;;;;;;;;;;;-0.53;97.52;97783.13;5013777;28;20450;-80
2022/01/01 07:20:38;;;;;;;;;;;;;;;-0.45;97.71;97787.47;5012503;28;19917;-80
2022/01/01 07:23:03;;;;;;;;;;;;;;;-0.45;97.75;97787.47;5012830;28;19963;-80
2022/01/01 07:25:29;;;;;;;;;;;;;;;-0.38;97.42;97787.53;5013768;28;20011;-80
2022/01/01 07:27:55;;;;;;;;;;;;;;;-0.44;97.50;97778.97;4996115;28;19945;-80
2022/01/01 07:30:20;;;;;;;;;;;;;;;-0.50;97.20;97787.44;5013580;28;19979;-80
2022/01/01 07:32:46;;;;;;;;;;;;;;;-0.49;97.52;97780.63;5012655;28;20376;-80
2022/01/01 07:35:12;;;;;;;;;;;;;;;-0.48;97.63;97777.25;4996491;28;19969;-80
2022/01/01 07:37:37;;;;;;;;;;;;;;;-0.43;97.96;97783.22;5013483;28;19959;-81
2022/01/01 07:40:03;;;;;;;;;;;;;;;-0.33;97.60;97777.38;4995733;28;20445;-81
2022/01/01 07:42:29;;;;;;;;;;;;;;;-0.38;97.59;97774.78;4996572;28;19965;-81
2022/01/01 07:44:54;;;;;;;;;;;;;;;-0.43;97.60;97776.44;5012607;28;20003;-79
2022/01/01 07:47:20;;;;;;;;;;;;;;;-0.43;97.54;97773.88;5013756;28;19913;-81
2022/01/01 07:49:45;;;;;;;;;;;;;;;-0.46;97.78;97778.09;4980066;28;19917;-82
2022/01/01 07:52:11;;;;;;;;;;;;;;;-0.45;97.98;97774.72;5013983;28;19913;-81
2022/01/01 07:54:36;;;;;;;;;;;;;;;-0.42;97.88;97779.84;5013743;28;19925;-81
2022/01/01 07:57:02;;;;;;;;;;;;;;;-0.35;97.95;97779.06;5012459;28;20399;-80
2022/01/01 07:59:27;;;;;;;;;;;;;;;-0.35;97.57;97784.16;5013633;28;19983;-80
2022/01/01 08:01:53;;;;;;;;;;;;;;;-0.34;97.79;97778.22;5012488;28;19917;-80
2022/01/01 08:04:18;;;;;;;;;;;;;;;-0.36;97.64;97780.75;5013301;28;19917;-81
2022/01/01 08:06:44;;;;;;;;;;;;;;;-0.31;97.64;97781.66;5011920;28;19913;-81
2022/01/01 08:09:09;;;;;;;;;;;;;;;-0.27;97.50;97785.09;5011908;28;19924;-81
2022/01/01 08:11:35;;;;;;;;;;;;;;;-0.25;97.64;97775.75;5011827;28;19945;-81
2022/01/01 08:14:00;;;;;;;;;;;;;;;-0.28;97.46;97775.72;5011852;28;20331;-81
2022/01/01 08:16:26;;;;;;;;;;;;;;;-0.24;97.53;97772.34;5013330;28;19913;-81
2022/01/01 08:18:51;;;;;;;;;;;;;;;-0.20;97.73;97775.78;5012302;28;20019;-81
2022/01/01 08:21:17;;;;;;;;;;;;;;;-0.12;97.69;97776.72;5011708;28;20288;-81
2022/01/01 08:23:43;;;;;;;;;;;;;;;-0.07;97.89;97770.78;5013002;28;20063;-80
2022/01/01 08:26:09;;;;;;;;;;;;;;;-0.05;97.53;97771.66;5011716;28;19949;-81
2022/01/01 08:28:34;;;;;;;;;;;;;;;0.04;97.72;97773.41;5012850;28;19940;-81
2022/01/01 08:31:00;;;;;;;;;;;;;;;0.04;96.89;97770.00;5011764;28;20299;-82
2022/01/01 08:33:25;;;;;;;;;;;;;;;0.14;97.10;97769.25;4995192;28;19980;-82
2022/01/01 08:35:50;;;;;;;;;;;;;;;0.08;96.81;97775.16;5012831;28;20403;-80
2022/01/01 08:38:16;;;;;;;;;;;;;;;0.14;97.34;97770.13;5011696;28;19917;-81
2022/01/01 08:40:42;;;;;;;;;;;;;;;0.18;97.22;97766.75;4995154;28;19928;-80
2022/01/01 08:43:07;;;;;;;;;;;;;;;0.31;97.30;97772.75;4995881;28;19917;-82
2022/01/01 08:45:33;;;;;;;;;;;;;;;0.30;96.44;97773.59;5012387;28;20004;-82
2022/01/01 08:47:59;;;;;;;;;;;;;;;0.29;96.52;97771.91;5012522;28;20339;-80
2022/01/01 08:50:24;;;;;;;;;;;;;;;0.15;95.30;97770.97;5013803;28;19920;-80
2022/01/01 08:52:50;;;;;;;;;;;;;;;0.10;95.33;97770.09;5017243;28;19917;-80
2022/01/01 08:55:15;;;;;;;;;;;;;;;0.14;95.05;97770.13;5016984;28;20343;-79
2022/01/01 08:57:41;;;;;;;;;;;;;;;0.27;95.40;97765.91;5017211;28;19917;-80
2022/01/01 09:00:07;;;;;;;;;;;;;;;0.29;95.46;97760.84;5016109;28;19913;-80
2022/01/01 09:02:33;;;;;;;;;;;;;;;0.29;95.00;97764.25;5015886;28;19917;-80
2022/01/01 09:04:59;;;;;;;;;;;;;;;0.27;94.60;97765.91;5017037;28;20396;-80
2022/01/01 09:07:30;;;;;;;;;;;;;;;0.15;94.65;97768.41;4999437;28;19924;-79
2022/01/01 09:09:56;;;;;;;;;;;;;;;0.23;94.43;97767.63;5016584;28;19987;-79
2022/01/01 09:12:22;;;;;;;;;;;;;;;0.29;94.42;97774.44;5016768;28;19913;-79
2022/01/01 09:14:47;;;;;;;;;;;;;;;0.22;93.96;97762.50;4999204;28;20019;-84
2022/01/01 09:17:13;;;;;;;;;;;;;;;0.22;94.14;97767.59;4998915;28;19917;-80
2022/01/01 09:19:38;;;;;;;;;;;;;;;0.19;93.66;97763.34;5014975;28;19933;-80
2022/01/01 09:22:03;;;;;;;;;;;;;;;0.16;93.50;97770.13;5016308;28;19937;-80
2022/01/01 09:24:30;;;;;;;;;;;;;;;0.19;94.12;97767.59;5015098;28;19940;-80
2022/01/01 09:26:56;;;;;;;;;;;;;;;0.16;93.76;97772.66;4998927;28;19920;-81
2022/01/01 09:29:21;;;;;;;;;;;;;;;0.15;93.98;97773.50;5015088;28;19921;-81
2022/01/01 09:31:47;;;;;;;;;;;;;;;0.12;94.13;97769.22;5016318;28;19917;-80
2022/01/01 09:34:12;;;;;;;;;;;;;;;0.18;94.47;97776.94;5015047;28;19921;-80
2022/01/01 09:36:38;;;;;;;;;;;;;;;0.20;94.21;97770.16;5016266;28;19956;-79
2022/01/01 09:39:06;;;;;;;;;;;;;;;0.17;94.32;97774.34;5015271;28;19975;-79
2022/01/01 09:41:32;;;;;;;;;;;;;;;0.13;93.94;97773.47;5014439;28;20319;-79
2022/01/01 09:43:57;;;;;;;;;;;;;;;0.16;94.04;97775.22;5014396;28;19917;-79
2022/01/01 09:46:23;;;;;;;;;;;;;;;0.21;93.95;97765.88;5014538;28;19924;-80
2022/01/01 09:48:49;;;;;;;;;;;;;;;0.27;94.43;97771.03;5014630;28;19917;-80
2022/01/01 09:51:15;;;;;;;;;;;;;;;0.42;94.66;97771.13;5015492;28;19963;-79
2022/01/01 09:53:40;;;;;;;;;;;;;;;0.36;94.06;97770.22;5015550;28;19925;-79
2022/01/01 09:56:06;;;;;;;;;;;;;;;0.49;93.49;97777.09;5015818;28;19928;-80
2022/01/01 09:58:32;;;;;;;;;;;;;;;0.47;93.43;97768.59;5014557;28;20012;-77
2022/01/01 10:00:58;;;;;;;;;;;;;;;0.33;93.41;97765.97;4997350;28;19955;-80
2022/01/01 10:03:35;;;;;;;;;;;;;;;0.29;93.27;97774.44;5014382;28;20396;-80
2022/01/01 10:06:05;;;;;;;;;;;;;;;0.28;93.41;97762.56;5015439;28;19967;-80
2022/01/01 10:08:30;;;;;;;;;;;;;;;0.24;92.86;97764.22;5015337;28;19913;-79
2022/01/01 10:10:56;;;;;;;;;;;;;;;0.33;93.12;97760.88;5014213;28;20387;-79
2022/01/01 10:13:28;;;;;;;;;;;;;;;0.31;93.35;97762.53;5015670;28;19913;-80
2022/01/01 10:15:54;;;;;;;;;;;;;;;0.31;93.02;97760.00;5015320;28;20016;-79
2022/01/01 10:18:29;;;;;;;;;;;;;;;0.31;93.08;97767.66;5015180;28;19913;-78
2022/01/01 10:20:56;;;;;;;;;;;;;;;0.31;92.75;97760.00;5014153;28;19917;-80
2022/01/01 10:23:26;;;;;;;;;;;;;;;0.43;92.30;97765.19;4997721;28;19928;-79
2022/01/01 10:28:36;;;;;;;;;;;;;;;0.47;91.91;97759.25;5015095;28;19917;-79
2022/01/01 10:31:01;;;;;;;;;;;;;;;0.46;92.17;97766.91;5014174;28;19913;-80
2022/01/01 10:33:27;;;;;;;;;;;;;;;0.39;91.72;97760.91;5014137;28;19917;-80
2022/01/01 10:35:53;;;;;;;;;;;;;;;0.41;91.75;97763.44;5013966;28;19914;-79
2022/01/01 10:38:19;;;;;;;;;;;;;;;0.42;91.38;97754.97;5014006;28;19917;-79
2022/01/01 10:40:45;;;;;;;;;;;;;;;0.39;90.64;97760.91;5014835;28;19936;-79
2022/01/01 10:43:10;;;;;;;;;;;;;;;0.40;90.83;97759.19;5013353;28;19917;-79
2022/01/01 10:45:40;;;;;;;;;;;;;;;0.38;89.43;97759.19;4981125;28;19920;-79
2022/01/01 10:48:41;;;;;;;;;;;;;;;0.32;88.19;97754.06;5014716;28;19917;-80
2022/01/01 10:51:07;;;;;;;;;;;;;;;0.43;88.78;97762.63;5013522;28;19924;-79
2022/01/01 10:53:33;;;;;;;;;;;;;;;0.39;87.35;97766.00;5013326;28;19913;-80
2022/01/01 10:55:59;;;;;;;;;;;;;;;0.36;86.63;97765.13;5012949;28;19924;-79
2022/01/01 10:58:28;;;;;;;;;;;;;;;0.43;87.19;97769.44;5014305;28;19920;-81
2022/01/01 11:01:14;;;;;;;;;;;;;;;0.40;86.79;97766.84;4996988;28;19927;-78
2022/01/01 11:03:41;;;;;;;;;;;;;;;0.27;86.47;97758.28;5014233;28;19936;-79
2022/01/01 11:06:08;;;;;;;;;;;;;;;0.22;86.31;97757.38;5014241;28;20284;-78
2022/01/01 11:08:34;;;;;;;;;;;;;;;0.16;86.76;97767.56;5013022;28;19929;-79
2022/01/01 11:11:00;;;;;;;;;;;;;;;0.18;86.89;97776.06;4996724;28;20384;-79
2022/01/01 11:13:25;;;;;;;;;;;;;;;0.13;87.13;97777.72;5012717;28;19917;-79
2022/01/01 11:15:51;;;;;;;;;;;;;;;0.13;87.16;97777.72;5013089;28;19920;-79
2022/01/01 11:18:17;;;;;;;;;;;;;;;0.15;87.32;97773.50;5013152;28;20323;-80
2022/01/01 11:20:42;;;;;;;;;;;;;;;0.30;87.70;97775.31;5014349;28;19913;-79
2022/01/01 11:23:09;;;;;;;;;;;;;;;0.36;86.89;97768.53;5014338;28;19921;-79
2022/01/01 11:25:35;;;;;;;;;;;;;;;0.24;85.86;97773.56;5014485;28;19968;-79
2022/01/01 11:28:01;;;;;;;;;;;;;;;0.31;86.31;97769.34;5013300;28;19924;-78
2022/01/01 11:30:30;;;;;;;;;;;;;;;0.34;85.93;97775.31;5012820;28;19920;-80
2022/01/01 11:32:56;;;;;;;;;;;;;;;0.16;83.24;97781.16;5012670;28;19960;-79
2022/01/01 11:35:22;;;;;;;;;;;;;;;0.19;82.74;97773.53;5013873;28;20403;-81
2022/01/01 11:37:54;;;;;;;;;;;;;;;0.30;83.32;97772.75;5012944;28;19917;-79
2022/01/01 11:40:19;;;;;;;;;;;;;;;0.24;81.65;97781.22;5013677;28;19921;-79
2022/01/01 11:42:45;;;;;;;;;;;;;;;0.23;81.62;97779.53;5012468;28;20395;-79
2022/01/01 11:45:12;;;;;;;;;;;;;;;0.18;80.85;97782.03;4995964;28;19921;-79
2022/01/01 11:47:38;;;;;;;;;;;;;;;0.27;80.85;97781.22;5012323;28;20023;-79
2022/01/01 11:50:04;;;;;;;;;;;;;;;0.25;80.42;97772.72;4996020;28;19967;-78
2022/01/01 11:52:36;;;;;;;;;;;;;;;0.22;80.06;97783.75;5012596;28;20349;-78
2022/01/01 11:55:03;;;;;;;;;;;;;;;0.20;80.19;97782.03;5013736;28;19921;-80
2022/01/01 11:57:30;;;;;;;;;;;;;;;0.11;80.29;97787.06;5013686;28;19933;-79
2022/01/01 12:00:08;;;;;;;;;;;;;;;0.20;81.17;97787.13;5013492;28;20424;-78
2022/01/01 12:02:34;;;;;;;;;;;;;;;0.16;80.69;97782.84;5012616;28;19921;-78
2022/01/01 12:05:09;;;;;;;;;;;;;;;0.17;80.16;97784.56;5013670;28;19963;-79
2022/01/01 12:07:42;;;;;;;;;;;;;;;0.09;80.95;97783.66;5013518;28;19917;-79
2022/01/01 12:10:07;;;;;;;;;;;;;;;0.06;81.17;97788.75;4995840;28;19964;-78
2022/01/01 12:12:36;;;;;;;;;;;;;;;-0.01;80.94;97786.13;5013246;28;19949;-78
2022/01/01 12:15:02;;;;;;;;;;;;;;;-0.04;81.68;97791.22;5012303;28;19943;-79
2022/01/01 12:17:27;;;;;;;;;;;;;;;0.04;82.17;97796.34;5013314;28;19917;-80
2022/01/01 12:19:56;;;;;;;;;;;;;;;0.15;81.96;97801.56;5013267;28;19944;-80
2022/01/01 12:22:24;;;;;;;;;;;;;;;0.18;81.45;97799.00;5012379;28;19925;-79
2022/01/01 12:24:51;;;;;;;;;;;;;;;0.08;81.91;97804.88;5011247;28;19921;-79
2022/01/01 12:27:17;;;;;;;;;;;;;;;-0.07;82.66;97805.63;5012748;28;19968;-80
2022/01/01 12:29:42;;;;;;;;;;;;;;;0.03;83.31;97801.47;5011687;28;19961;-79
2022/01/01 12:32:08;;;;;;;;;;;;;;;-0.02;83.46;97804.81;4995122;28;19952;-78
2022/01/01 12:34:36;;;;;;;;;;;;;;;-0.02;83.42;97814.16;5011775;28;19940;-78
2022/01/01 12:37:03;;;;;;;;;;;;;;;-0.13;83.97;97806.44;5012193;28;19967;-80
2022/01/01 12:39:29;;;;;;;;;;;;;;;-0.16;83.92;97811.50;5012824;28;19929;-78
2022/01/01 12:41:56;;;;;;;;;;;;;;;-0.15;84.70;97803.00;5013008;28;20009;-79
2022/01/01 12:44:23;;;;;;;;;;;;;;;-0.13;84.53;97820.88;5013007;28;19925;-79